Time;durP1;ratioP1;P1;durP2;ratioP2;P2;SDS_P1;SDS_P2;PMS_P1;PMS_P2;Temp;Humidity;BMP_temperature;BMP_pressure;BME280_temperature;BME280_humidity;BME280_pressure;Samples;Min_cycle;Max_cycle;Signal;HPM_P1;HPM_P2
2021/07/11 00:01:38;;;;;;;;;;;;;;;23.92;47.80;99500.25;5133281;27;20336;-36
2021/07/11 00:04:04;;;;;;;;;;;;;;;23.92;47.62;99497.56;5133399;27;19911;-36
2021/07/11 00:06:30;;;;;;;;;;;;;;;24.00;47.10;99496.84;5114705;27;19912;-38
2021/07/11 00:08:55;;;;;;;;;;;;;;;24.12;46.92;99503.72;5133222;27;19916;-38
2021/07/11 00:11:21;;;;;;;;;;;;;;;24.16;47.08;99497.41;5133218;27;20429;-37
2021/07/11 00:13:46;;;;;;;;;;;;;;;24.10;47.22;99498.59;5133251;27;19968;-37
2021/07/11 00:16:11;;;;;;;;;;;;;;;23.99;47.63;99494.47;5114618;27;19998;-37
2021/07/11 00:18:36;;;;;;;;;;;;;;;23.80;48.30;99487.16;5133010;27;19934;-37
2021/07/11 00:21:02;;;;;;;;;;;;;;;23.81;48.49;99493.38;5117800;27;19926;-37
2021/07/11 00:23:27;;;;;;;;;;;;;;;24.03;47.69;99492.75;5112633;28;19987;-38
2021/07/11 00:25:52;;;;;;;;;;;;;;;24.12;47.88;99493.69;5112402;28;19918;-36
2021/07/11 00:28:17;;;;;;;;;;;;;;;23.88;48.57;99493.03;5112342;28;19928;-36
2021/07/11 00:30:43;;;;;;;;;;;;;;;23.84;48.51;99483.81;5112122;28;19935;-36
2021/07/11 00:33:08;;;;;;;;;;;;;;;23.76;48.87;99491.53;5121838;27;19911;-36
2021/07/11 00:35:33;;;;;;;;;;;;;;;23.77;49.25;99479.56;5114224;27;19911;-38
2021/07/11 00:37:59;;;;;;;;;;;;;;;23.92;48.66;99481.25;5130146;27;19915;-38
2021/07/11 00:40:24;;;;;;;;;;;;;;;23.79;48.90;99477.38;5132658;27;19911;-37
2021/07/11 00:42:49;;;;;;;;;;;;;;;23.49;49.64;99475.94;5132803;27;19911;-37
2021/07/11 00:45:15;;;;;;;;;;;;;;;23.66;48.37;99475.41;5132685;27;20578;-37
2021/07/11 00:47:40;;;;;;;;;;;;;;;23.85;47.93;99475.38;5132590;27;19915;-37
2021/07/11 00:50:06;;;;;;;;;;;;;;;24.02;46.92;99480.25;5132721;27;19918;-37
2021/07/11 00:52:31;;;;;;;;;;;;;;;24.00;47.09;99482.47;5132490;27;19912;-37
2021/07/11 00:54:56;;;;;;;;;;;;;;;23.77;48.01;99485.00;5132518;27;19918;-38
2021/07/11 00:57:22;;;;;;;;;;;;;;;23.78;47.61;99486.66;5132384;27;19911;-37
2021/07/11 00:59:47;;;;;;;;;;;;;;;23.74;48.03;99492.94;5132466;27;19912;-37
2021/07/11 01:02:15;;;;;;;;;;;;;;;23.68;48.46;99494.91;5131254;27;20262;-38
2021/07/11 01:04:43;;;;;;;;;;;;;;;23.76;48.30;99493.44;5132302;27;19915;-36
2021/07/11 01:07:08;;;;;;;;;;;;;;;23.66;48.56;99490.91;5113708;27;19919;-36
2021/07/11 01:09:35;;;;;;;;;;;;;;;23.83;48.35;99490.38;5113459;27;20010;-37
2021/07/11 01:12:04;;;;;;;;;;;;;;;23.61;48.68;99487.16;5132012;27;20016;-37
2021/07/11 01:14:30;;;;;;;;;;;;;;;23.45;48.83;99487.69;5131794;27;20316;-37
2021/07/11 01:16:55;;;;;;;;;;;;;;;23.99;47.70;99489.03;5114170;27;19954;-37
2021/07/11 01:19:21;;;;;;;;;;;;;;;24.12;46.88;99487.41;5110007;28;19920;-37
2021/07/11 01:21:46;;;;;;;;;;;;;;;23.62;48.25;99494.19;5111969;28;20002;-37
2021/07/11 01:24:22;;;;;;;;;;;;;;;24.35;46.33;99481.00;5111780;28;20331;-37
2021/07/11 01:26:48;;;;;;;;;;;;;;;24.78;45.04;99479.91;5111731;28;20296;-37
2021/07/11 01:29:13;;;;;;;;;;;;;;;24.98;44.71;99487.66;5112055;28;20371;-38
2021/07/11 01:31:38;;;;;;;;;;;;;;;25.02;44.51;99481.56;5111876;28;20121;-38
2021/07/11 01:34:04;;;;;;;;;;;;;;;25.05;44.16;99484.50;5093310;28;19916;-38
2021/07/11 01:36:29;;;;;;;;;;;;;;;25.07;44.07;99476.03;5093251;28;20295;-38
2021/07/11 01:38:54;;;;;;;;;;;;;;;25.08;43.73;99474.94;5109710;27;20275;-38
2021/07/11 01:41:20;;;;;;;;;;;;;;;25.04;44.24;99480.19;5094966;28;19931;-37
2021/07/11 01:43:46;;;;;;;;;;;;;;;24.93;44.29;99467.91;5111433;28;19934;-38
2021/07/11 01:46:11;;;;;;;;;;;;;;;24.97;44.00;99466.97;5093269;28;20042;-38
2021/07/11 01:48:36;;;;;;;;;;;;;;;24.96;43.54;99470.81;5111593;28;20389;-38
2021/07/11 01:51:02;;;;;;;;;;;;;;;24.91;43.77;99473.63;5093173;28;20037;-37
2021/07/11 01:53:31;;;;;;;;;;;;;;;24.80;44.58;99480.41;5111569;28;19911;-38
2021/07/11 01:55:56;;;;;;;;;;;;;;;24.61;44.89;99477.81;5111306;28;19970;-38
2021/07/11 01:58:22;;;;;;;;;;;;;;;24.17;45.93;99479.19;5093181;28;20323;-36
2021/07/11 02:00:47;;;;;;;;;;;;;;;23.79;47.04;99480.09;5111385;28;20018;-38
2021/07/11 02:03:16;;;;;;;;;;;;;;;24.02;46.35;99485.69;5111362;28;19922;-37
2021/07/11 02:05:41;;;;;;;;;;;;;;;23.96;46.15;99486.91;5111506;28;19919;-37
2021/07/11 02:08:07;;;;;;;;;;;;;;;24.23;45.61;99488.03;5111321;28;20240;-38
2021/07/11 02:10:32;;;;;;;;;;;;;;;24.30;45.18;99483.81;5111487;28;20003;-37
2021/07/11 02:12:59;;;;;;;;;;;;;;;24.31;45.43;99492.78;5111306;28;20331;-37
2021/07/11 02:15:29;;;;;;;;;;;;;;;24.34;45.26;99489.47;5109918;28;19924;-37
2021/07/11 02:17:54;;;;;;;;;;;;;;;23.98;46.44;99484.69;5111290;28;19965;-38
2021/07/11 02:20:19;;;;;;;;;;;;;;;24.12;45.98;99499.13;5104060;28;19920;-38
2021/07/11 02:22:45;;;;;;;;;;;;;;;24.06;45.67;99497.56;5111310;28;20356;-37
2021/07/11 02:25:11;;;;;;;;;;;;;;;23.80;45.73;99489.88;5111364;28;19923;-37
2021/07/11 02:27:37;;;;;;;;;;;;;;;24.00;45.46;99493.34;5111252;28;19912;-37
2021/07/11 02:30:06;;;;;;;;;;;;;;;24.12;45.07;99490.97;5093074;28;19973;-37
2021/07/11 02:32:32;;;;;;;;;;;;;;;24.01;45.60;99486.81;5111167;28;19916;-37
2021/07/11 02:34:57;;;;;;;;;;;;;;;24.00;45.29;99482.47;5111335;28;19992;-37
2021/07/11 02:37:22;;;;;;;;;;;;;;;24.00;45.29;99482.47;5093101;28;19919;-37
2021/07/11 02:39:49;;;;;;;;;;;;;;;23.94;45.06;99489.91;5116764;28;20279;-37
2021/07/11 02:42:14;;;;;;;;;;;;;;;23.90;44.59;99482.66;5131380;28;20374;-38
2021/07/11 02:44:42;;;;;;;;;;;;;;;23.89;44.68;99491.91;5113258;28;19933;-37
2021/07/11 02:47:20;;;;;;;;;;;;;;;23.89;44.32;99487.25;5113097;28;19912;-37
2021/07/11 02:49:47;;;;;;;;;;;;;;;23.95;44.04;99482.53;5131609;28;19946;-37
2021/07/11 02:52:12;;;;;;;;;;;;;;;24.07;43.68;99488.31;5131359;28;19950;-37
2021/07/11 02:54:45;;;;;;;;;;;;;;;24.08;43.60;99489.91;5112480;28;19942;-36
2021/07/11 02:57:10;;;;;;;;;;;;;;;24.00;43.80;99488.69;5131496;28;19919;-37
2021/07/11 02:59:35;;;;;;;;;;;;;;;24.11;43.75;99485.81;5112901;28;20030;-37
2021/07/11 03:02:02;;;;;;;;;;;;;;;24.09;43.63;99488.84;5112658;28;19919;-37
2021/07/11 03:04:27;;;;;;;;;;;;;;;24.06;43.52;99492.13;5131204;28;19912;-37
2021/07/11 03:06:52;;;;;;;;;;;;;;;24.03;43.56;99489.22;5112833;28;19918;-39
2021/07/11 03:09:17;;;;;;;;;;;;;;;23.94;43.78;99499.97;5131116;28;20247;-36
2021/07/11 03:11:43;;;;;;;;;;;;;;;23.78;43.63;99504.84;5131672;28;19912;-37
2021/07/11 03:14:09;;;;;;;;;;;;;;;23.90;43.28;99502.47;5112701;28;20362;-37
2021/07/11 03:16:35;;;;;;;;;;;;;;;23.99;42.95;99499.91;5130952;28;19915;-37
2021/07/11 03:19:00;;;;;;;;;;;;;;;24.08;42.63;99505.44;5112542;28;20014;-36
2021/07/11 03:21:26;;;;;;;;;;;;;;;23.93;42.50;99501.88;5112424;28;19963;-37
2021/07/11 03:23:51;;;;;;;;;;;;;;;23.84;42.76;99500.13;5092601;28;19912;-37
2021/07/11 03:26:17;;;;;;;;;;;;;;;23.64;42.64;99502.06;5113982;28;20382;-37
2021/07/11 03:28:43;;;;;;;;;;;;;;;23.73;42.44;99505.72;5114598;28;19915;-37
2021/07/11 03:31:08;;;;;;;;;;;;;;;23.65;42.57;99511.03;5095885;28;20284;-37
2021/07/11 03:33:36;;;;;;;;;;;;;;;23.60;42.67;99507.25;5095951;28;20006;-38
2021/07/11 03:36:02;;;;;;;;;;;;;;;23.41;42.75;99510.00;5095693;28;19919;-37
2021/07/11 03:38:31;;;;;;;;;;;;;;;23.40;42.41;99510.31;5114218;28;19912;-37
2021/07/11 03:40:57;;;;;;;;;;;;;;;23.53;42.52;99514.19;5129561;27;19912;-37
2021/07/11 03:43:23;;;;;;;;;;;;;;;23.44;43.42;99522.19;5133544;27;20301;-38
2021/07/11 03:45:48;;;;;;;;;;;;;;;23.40;43.02;99513.81;5114857;27;19940;-37
2021/07/11 03:48:15;;;;;;;;;;;;;;;23.37;44.57;99522.56;5115060;27;19911;-37
2021/07/11 03:50:41;;;;;;;;;;;;;;;23.98;41.72;99515.38;5114567;27;20613;-37
2021/07/11 03:53:07;;;;;;;;;;;;;;;24.36;40.81;99504.38;5114886;27;19933;-38
2021/07/11 03:55:33;;;;;;;;;;;;;;;24.66;40.72;99518.50;5133314;27;20359;-38
2021/07/11 03:57:58;;;;;;;;;;;;;;;25.23;40.13;99514.66;5133305;27;19911;-38
2021/07/11 04:00:24;;;;;;;;;;;;;;;25.54;38.66;99520.97;5133546;27;19915;-38
2021/07/11 04:02:49;;;;;;;;;;;;;;;25.64;38.44;99522.66;5114596;27;19916;-38
2021/07/11 04:05:15;;;;;;;;;;;;;;;25.99;37.62;99509.31;5114891;27;20081;-38
2021/07/11 04:07:40;;;;;;;;;;;;;;;26.11;37.30;99523.16;5114576;27;19976;-38
2021/07/11 04:10:06;;;;;;;;;;;;;;;26.37;36.99;99519.78;5114928;27;19912;-38
2021/07/11 04:12:31;;;;;;;;;;;;;;;27.01;35.81;99522.06;5133132;27;19999;-37
2021/07/11 04:14:57;;;;;;;;;;;;;;;27.11;35.67;99519.03;5132960;27;20383;-39
2021/07/11 04:17:22;;;;;;;;;;;;;;;27.74;34.61;99526.97;5132994;27;20327;-38
2021/07/11 04:19:48;;;;;;;;;;;;;;;27.92;34.57;99521.50;5126778;27;20001;-37
2021/07/11 04:22:14;;;;;;;;;;;;;;;27.87;34.14;99528.72;5112582;28;19915;-37
2021/07/11 04:24:39;;;;;;;;;;;;;;;27.74;34.28;99520.66;5094432;28;19996;-38
2021/07/11 04:27:05;;;;;;;;;;;;;;;27.84;34.12;99526.59;5094286;28;19916;-38
2021/07/11 04:29:33;;;;;;;;;;;;;;;28.12;34.13;99530.91;5094063;28;20039;-38
2021/07/11 04:31:58;;;;;;;;;;;;;;;28.59;32.77;99536.41;5094375;28;19919;-36
2021/07/11 04:34:25;;;;;;;;;;;;;;;28.79;32.63;99534.88;5112326;28;19943;-38
2021/07/11 04:36:51;;;;;;;;;;;;;;;29.05;32.14;99529.22;5092881;28;19939;-38
2021/07/11 04:39:16;;;;;;;;;;;;;;;29.27;32.25;99541.06;5113560;27;20569;-37
2021/07/11 04:41:42;;;;;;;;;;;;;;;29.46;31.32;99533.16;5132643;27;19916;-38
2021/07/11 04:44:08;;;;;;;;;;;;;;;29.45;31.54;99537.03;5132730;27;20295;-37
2021/07/11 04:46:33;;;;;;;;;;;;;;;29.27;31.59;99530.09;5132689;27;19911;-38
2021/07/11 04:48:58;;;;;;;;;;;;;;;28.59;32.79;99539.16;5132440;27;20004;-37
2021/07/11 04:51:24;;;;;;;;;;;;;;;28.60;33.19;99541.56;5132481;27;19922;-38
2021/07/11 04:53:49;;;;;;;;;;;;;;;28.79;33.07;99546.63;5132635;27;20366;-37
2021/07/11 04:56:14;;;;;;;;;;;;;;;29.15;32.33;99539.84;5132535;27;19915;-37
2021/07/11 04:58:40;;;;;;;;;;;;;;;29.46;31.95;99535.91;5113636;27;20326;-36
2021/07/11 05:01:05;;;;;;;;;;;;;;;29.99;30.99;99537.03;5131547;27;19915;-37
2021/07/11 05:03:30;;;;;;;;;;;;;;;30.20;30.76;99534.25;5131469;27;20607;-38
2021/07/11 05:05:55;;;;;;;;;;;;;;;31.03;29.20;99533.38;5131899;27;19919;-38
2021/07/11 05:08:21;;;;;;;;;;;;;;;30.76;29.50;99533.72;5132158;27;20363;-37
2021/07/11 05:10:46;;;;;;;;;;;;;;;30.56;29.95;99540.94;5132288;27;19979;-37
2021/07/11 05:13:11;;;;;;;;;;;;;;;30.29;30.22;99541.56;5131976;27;19912;-37
2021/07/11 05:15:36;;;;;;;;;;;;;;;30.47;30.48;99534.75;5113373;27;19915;-38
2021/07/11 05:18:02;;;;;;;;;;;;;;;30.37;30.24;99538.75;5131764;27;19915;-38
2021/07/11 05:20:27;;;;;;;;;;;;;;;31.46;28.74;99530.00;5121447;27;20240;-37
2021/07/11 05:22:52;;;;;;;;;;;;;;;31.19;29.45;99534.28;5111358;28;19919;-37
2021/07/11 05:25:17;;;;;;;;;;;;;;;31.07;29.68;99529.63;5111263;28;19919;-37
2021/07/11 05:27:43;;;;;;;;;;;;;;;31.08;29.15;99535.91;5122482;27;19920;-37
2021/07/11 05:30:08;;;;;;;;;;;;;;;31.21;29.44;99536.69;5111213;27;20310;-38
2021/07/11 05:32:34;;;;;;;;;;;;;;;31.58;29.22;99540.13;5110948;28;19919;-37
2021/07/11 05:34:59;;;;;;;;;;;;;;;32.25;28.33;99540.41;5110728;28;19911;-38
2021/07/11 05:37:24;;;;;;;;;;;;;;;32.18;28.50;99540.22;5110970;28;19915;-37
2021/07/11 05:39:50;;;;;;;;;;;;;;;32.13;29.12;99533.00;5110987;28;19992;-37
2021/07/11 05:42:15;;;;;;;;;;;;;;;32.29;28.49;99540.47;5110733;28;19916;-38
2021/07/11 05:44:40;;;;;;;;;;;;;;;32.51;28.00;99539.84;5110955;28;19916;-38
2021/07/11 05:47:06;;;;;;;;;;;;;;;33.45;27.04;99542.81;5110354;28;19912;-39
2021/07/11 05:49:31;;;;;;;;;;;;;;;33.07;27.37;99536.06;5110837;28;19911;-36
2021/07/11 05:51:56;;;;;;;;;;;;;;;32.51;28.20;99539.06;5110934;28;19919;-37
2021/07/11 05:54:22;;;;;;;;;;;;;;;32.69;28.05;99534.81;5110377;28;20352;-37
2021/07/11 05:56:47;;;;;;;;;;;;;;;32.98;27.73;99534.69;5110683;28;19912;-37
2021/07/11 05:59:12;;;;;;;;;;;;;;;33.84;26.52;99531.00;5110755;28;19998;-38
2021/07/11 06:01:37;;;;;;;;;;;;;;;33.85;26.15;99527.06;5110841;28;19961;-38
2021/07/11 06:04:03;;;;;;;;;;;;;;;33.31;26.88;99535.03;5105494;28;19923;-38
2021/07/11 06:06:28;;;;;;;;;;;;;;;33.43;27.25;99539.59;5103749;28;20014;-37
2021/07/11 06:08:53;;;;;;;;;;;;;;;33.54;27.41;99534.31;5092944;28;20294;-37
2021/07/11 06:11:19;;;;;;;;;;;;;;;33.66;26.62;99536.97;5090492;28;19919;-52
2021/07/11 06:13:45;;;;;;;;;;;;;;;34.49;26.05;99535.69;5090769;28;19913;-52
2021/07/11 06:16:11;;;;;;;;;;;;;;;34.48;26.00;99539.59;5091344;28;20363;-52
2021/07/11 06:18:36;;;;;;;;;;;;;;;34.11;25.76;99534.63;5072175;28;19920;-52
2021/07/11 06:21:01;;;;;;;;;;;;;;;34.14;25.74;99533.09;5104984;28;19920;-53
2021/07/11 06:23:27;;;;;;;;;;;;;;;34.41;25.53;99534.00;5110490;28;19923;-52
2021/07/11 06:25:52;;;;;;;;;;;;;;;34.75;25.06;99529.41;5108308;28;20295;-53
2021/07/11 06:28:17;;;;;;;;;;;;;;;35.53;24.33;99526.13;5090322;28;19912;-53
2021/07/11 06:30:43;;;;;;;;;;;;;;;35.11;24.55;99523.59;5090665;28;19923;-51
2021/07/11 06:33:08;;;;;;;;;;;;;;;35.10;24.62;99522.78;5090413;28;19912;-49
2021/07/11 06:35:33;;;;;;;;;;;;;;;35.14;24.81;99533.91;5090185;28;19912;-53
2021/07/11 06:37:58;;;;;;;;;;;;;;;35.38;24.31;99536.22;5090478;28;20020;-52
2021/07/11 06:40:24;;;;;;;;;;;;;;;36.23;23.17;99534.78;5111838;28;20393;-53
2021/07/11 06:42:49;;;;;;;;;;;;;;;36.23;23.38;99529.25;5131256;28;19923;-53
2021/07/11 06:45:15;;;;;;;;;;;;;;;35.67;23.51;99525.50;5131595;28;20379;-52
2021/07/11 06:47:41;;;;;;;;;;;;;;;35.72;23.08;99521.59;5131235;28;19911;-51
2021/07/11 06:50:06;;;;;;;;;;;;;;;35.01;23.88;99519.50;5130609;28;19927;-53
2021/07/11 06:52:34;;;;;;;;;;;;;;;35.40;23.10;99525.59;5131260;28;19922;-51
2021/07/11 06:54:59;;;;;;;;;;;;;;;36.77;21.89;99526.94;5131091;28;20008;-52
2021/07/11 06:57:24;;;;;;;;;;;;;;;35.78;23.26;99522.88;5131207;28;20391;-50
2021/07/11 06:59:50;;;;;;;;;;;;;;;35.28;23.27;99528.59;5131946;27;19919;-51
2021/07/11 07:02:15;;;;;;;;;;;;;;;35.15;23.83;99521.69;5134937;27;19923;-49
2021/07/11 07:04:40;;;;;;;;;;;;;;;35.33;23.93;99522.72;5134776;27;19923;-52
2021/07/11 07:07:06;;;;;;;;;;;;;;;35.55;22.94;99525.75;5135150;27;20337;-51
2021/07/11 07:09:31;;;;;;;;;;;;;;;36.24;22.43;99532.84;5134988;27;20294;-50
2021/07/11 07:11:56;;;;;;;;;;;;;;;35.68;24.04;99526.31;5134615;27;20308;-50
2021/07/11 07:14:21;;;;;;;;;;;;;;;35.72;23.95;99527.97;5134996;27;19911;-52
2021/07/11 07:16:47;;;;;;;;;;;;;;;35.84;23.96;99521.34;5133384;27;19922;-52
2021/07/11 07:19:12;;;;;;;;;;;;;;;36.06;22.90;99527.09;5135156;27;20293;-52
2021/07/11 07:21:37;;;;;;;;;;;;;;;36.21;22.56;99523.31;5114550;27;19923;-51
2021/07/11 07:24:03;;;;;;;;;;;;;;;37.40;22.22;99526.88;5114530;28;19912;-52
2021/07/11 07:26:28;;;;;;;;;;;;;;;36.96;21.87;99521.09;5114269;28;20347;-52
2021/07/11 07:28:54;;;;;;;;;;;;;;;36.26;23.36;99527.72;5114106;28;19912;-51
2021/07/11 07:31:19;;;;;;;;;;;;;;;36.26;23.02;99519.41;5114419;28;19912;-53
2021/07/11 07:33:44;;;;;;;;;;;;;;;36.46;22.87;99520.75;5113237;28;20019;-53
2021/07/11 07:36:10;;;;;;;;;;;;;;;36.44;22.93;99516.75;5113945;28;19912;-52
2021/07/11 07:38:35;;;;;;;;;;;;;;;37.45;21.53;99526.50;5114364;28;19908;-51
2021/07/11 07:41:00;;;;;;;;;;;;;;;36.89;22.07;99526.59;5113960;28;19912;-52
2021/07/11 07:43:25;;;;;;;;;;;;;;;36.46;23.11;99520.75;5113961;28;20014;-51
2021/07/11 07:45:51;;;;;;;;;;;;;;;36.30;23.15;99514.69;5113493;28;20374;-52
2021/07/11 07:48:16;;;;;;;;;;;;;;;36.53;22.55;99517.22;5113501;28;19912;-51
2021/07/11 07:50:41;;;;;;;;;;;;;;;36.65;22.95;99518.91;5122266;27;19922;-53
2021/07/11 07:53:07;;;;;;;;;;;;;;;37.43;22.25;99517.78;5134065;27;20028;-52
2021/07/11 07:55:32;;;;;;;;;;;;;;;37.27;22.56;99521.69;5134306;27;20347;-52
2021/07/11 07:58:00;;;;;;;;;;;;;;;36.84;22.86;99521.41;5134383;27;19932;-52
2021/07/11 08:00:26;;;;;;;;;;;;;;;36.65;23.06;99516.94;5134339;27;20049;-50
2021/07/11 08:02:51;;;;;;;;;;;;;;;36.75;22.85;99519.00;5134328;27;20395;-52
2021/07/11 08:05:16;;;;;;;;;;;;;;;36.97;22.58;99514.38;5133992;27;19915;-52
2021/07/11 08:07:42;;;;;;;;;;;;;;;37.43;22.53;99509.44;5133929;27;19915;-50
2021/07/11 08:10:07;;;;;;;;;;;;;;;37.58;21.92;99516.63;5133563;27;20539;-53
2021/07/11 08:12:33;;;;;;;;;;;;;;;37.07;22.87;99515.63;5133318;27;20029;-51
2021/07/11 08:14:58;;;;;;;;;;;;;;;36.85;22.50;99517.47;5133783;27;19911;-53
2021/07/11 08:17:23;;;;;;;;;;;;;;;37.22;22.43;99516.50;5133748;27;20101;-53
2021/07/11 08:19:49;;;;;;;;;;;;;;;37.52;22.16;99512.66;5129138;27;19923;-52
2021/07/11 08:22:14;;;;;;;;;;;;;;;37.68;22.13;99506.75;5113128;28;19922;-51
2021/07/11 08:24:39;;;;;;;;;;;;;;;37.98;20.86;99500.88;5112675;28;19980;-53
2021/07/11 08:27:05;;;;;;;;;;;;;;;37.60;21.69;99505.13;5112718;28;19912;-52
2021/07/11 08:29:30;;;;;;;;;;;;;;;37.19;22.10;99500.66;5112853;28;20420;-53
2021/07/11 08:31:55;;;;;;;;;;;;;;;37.17;22.37;99491.94;5113154;28;19955;-53
2021/07/11 08:34:21;;;;;;;;;;;;;;;37.08;21.78;99492.25;5113183;28;19916;-49
2021/07/11 08:36:46;;;;;;;;;;;;;;;37.20;22.06;99495.88;5113353;28;19916;-52
2021/07/11 08:39:11;;;;;;;;;;;;;;;36.27;22.67;99487.75;5112626;28;20216;-52
2021/07/11 08:41:37;;;;;;;;;;;;;;;37.34;21.24;99487.63;5112797;28;20485;-53
2021/07/11 08:44:02;;;;;;;;;;;;;;;36.42;22.63;99489.44;5112698;28;19934;-54
2021/07/11 08:46:28;;;;;;;;;;;;;;;36.16;23.00;99482.91;5112736;28;20550;-51
2021/07/11 08:48:53;;;;;;;;;;;;;;;35.63;23.45;99480.38;5112748;28;19911;-51
2021/07/11 08:51:18;;;;;;;;;;;;;;;35.78;22.62;99473.06;5126516;27;20365;-52
2021/07/11 08:53:44;;;;;;;;;;;;;;;36.01;23.16;99470.91;5132908;27;19961;-52
2021/07/11 08:56:19;;;;;;;;;;;;;;;36.37;22.60;99471.22;5132908;27;19919;-52
2021/07/11 08:58:48;;;;;;;;;;;;;;;36.76;22.67;99459.59;5133134;27;20372;-52
2021/07/11 09:01:13;;;;;;;;;;;;;;;36.58;22.60;99465.03;5132907;27;19911;-52
2021/07/11 09:03:38;;;;;;;;;;;;;;;36.40;23.31;99455.78;5132937;27;19972;-51
2021/07/11 09:06:03;;;;;;;;;;;;;;;36.49;23.51;99453.47;5132984;27;19950;-52
2021/07/11 09:08:29;;;;;;;;;;;;;;;36.68;22.85;99457.19;5132931;27;19968;-49
2021/07/11 09:10:56;;;;;;;;;;;;;;;36.58;22.75;99462.25;5114209;27;19949;-49
2021/07/11 09:13:22;;;;;;;;;;;;;;;37.08;22.91;99445.09;5133028;27;19918;-50
2021/07/11 09:15:50;;;;;;;;;;;;;;;36.92;23.25;99445.44;5131194;27;19916;-52
2021/07/11 09:18:21;;;;;;;;;;;;;;;36.61;22.53;99449.59;5132450;27;20694;-52
2021/07/11 09:20:50;;;;;;;;;;;;;;;35.49;24.41;99442.31;5119430;27;19927;-51
2021/07/11 09:23:16;;;;;;;;;;;;;;;35.55;24.45;99438.03;5111137;28;19923;-50
2021/07/11 09:25:41;;;;;;;;;;;;;;;35.24;24.26;99428.19;5112131;28;19911;-52
2021/07/11 09:28:10;;;;;;;;;;;;;;;35.19;24.67;99434.09;5111733;28;19911;-52
2021/07/11 09:30:36;;;;;;;;;;;;;;;35.31;24.48;99435.78;5111959;28;19911;-51
2021/07/11 09:33:01;;;;;;;;;;;;;;;35.54;24.36;99430.09;5111810;28;20379;-52
2021/07/11 09:35:26;;;;;;;;;;;;;;;35.88;23.99;99430.84;5112070;28;19915;-52
2021/07/11 09:38:00;;;;;;;;;;;;;;;36.32;24.18;99434.78;5111740;28;20381;-51
2021/07/11 09:40:27;;;;;;;;;;;;;;;36.62;23.28;99428.25;5112060;28;19966;-51
2021/07/11 09:42:54;;;;;;;;;;;;;;;36.03;23.70;99434.53;5127106;27;20038;-52
2021/07/11 09:45:20;;;;;;;;;;;;;;;35.54;24.66;99430.88;5132130;27;19911;-51
2021/07/11 09:47:46;;;;;;;;;;;;;;;35.07;25.13;99429.53;5132364;27;19950;-53
2021/07/11 09:50:16;;;;;;;;;;;;;;;35.27;24.72;99430.22;5132511;27;20298;-51
2021/07/11 09:52:42;;;;;;;;;;;;;;;35.25;24.98;99424.28;5132333;27;20006;-52
2021/07/11 09:55:07;;;;;;;;;;;;;;;35.84;24.21;99420.94;5131786;27;20444;-52
2021/07/11 09:57:34;;;;;;;;;;;;;;;36.32;23.60;99418.94;5131635;27;19911;-51
2021/07/11 10:00:09;;;;;;;;;;;;;;;36.10;24.34;99414.41;5131994;27;19979;-53
2021/07/11 10:02:34;;;;;;;;;;;;;;;35.51;23.77;99419.78;5131866;27;20086;-53
2021/07/11 10:05:00;;;;;;;;;;;;;;;34.64;25.32;99421.47;5131902;27;19950;-52
2021/07/11 10:07:25;;;;;;;;;;;;;;;34.35;25.65;99402.91;5131998;27;19912;-52
2021/07/11 10:09:50;;;;;;;;;;;;;;;34.37;25.81;99411.63;5132179;27;19998;-52
2021/07/11 10:12:15;;;;;;;;;;;;;;;34.51;25.89;99405.50;5132013;27;19912;-55
2021/07/11 10:14:41;;;;;;;;;;;;;;;34.50;25.88;99406.66;5131473;27;19955;-53
2021/07/11 10:17:06;;;;;;;;;;;;;;;34.30;26.34;99404.03;5131790;28;19952;-53
2021/07/11 10:19:32;;;;;;;;;;;;;;;34.73;25.04;99407.44;5128827;28;19919;-50
2021/07/11 10:21:57;;;;;;;;;;;;;;;34.80;24.98;99395.66;5093349;28;19916;-53
2021/07/11 10:24:23;;;;;;;;;;;;;;;35.15;24.93;99408.34;5093330;28;19912;-52
2021/07/11 10:26:49;;;;;;;;;;;;;;;35.35;24.35;99404.22;5111277;28;19912;-52
2021/07/11 10:29:15;;;;;;;;;;;;;;;35.39;24.68;99399.50;5111669;28;19944;-50
2021/07/11 10:31:42;;;;;;;;;;;;;;;35.41;24.41;99401.91;5111753;28;19965;-52
2021/07/11 10:34:07;;;;;;;;;;;;;;;34.88;24.49;99396.53;5113330;28;19968;-53
2021/07/11 10:36:33;;;;;;;;;;;;;;;35.14;24.68;99395.66;5115438;28;19912;-50
2021/07/11 10:38:59;;;;;;;;;;;;;;;35.15;24.21;99384.25;5115678;28;20352;-51
2021/07/11 10:41:26;;;;;;;;;;;;;;;35.58;24.41;99392.97;5115158;28;20474;-52
2021/07/11 10:44:07;;;;;;;;;;;;;;;35.53;24.19;99378.69;5115529;28;19912;-53
2021/07/11 10:46:33;;;;;;;;;;;;;;;35.39;23.96;99384.91;5115254;28;19923;-51
2021/07/11 10:49:14;;;;;;;;;;;;;;;35.12;23.62;99379.47;5115022;28;19956;-52
2021/07/11 10:51:50;;;;;;;;;;;;;;;35.67;23.96;99373.31;5130962;27;20316;-53
2021/07/11 10:54:19;;;;;;;;;;;;;;;35.41;23.35;99372.31;5135908;27;19911;-54
2021/07/11 10:56:44;;;;;;;;;;;;;;;35.55;23.12;99376.38;5117262;27;19911;-52
2021/07/11 10:59:09;;;;;;;;;;;;;;;35.31;23.23;99374.94;5135969;27;20275;-53
2021/07/11 11:01:38;;;;;;;;;;;;;;;35.12;22.90;99371.16;5116883;27;19915;-52
2021/07/11 11:04:03;;;;;;;;;;;;;;;34.91;23.78;99360.66;5114624;28;19920;-52
2021/07/11 11:06:37;;;;;;;;;;;;;;;35.23;23.70;99360.25;5114901;28;19912;-51
2021/07/11 11:09:03;;;;;;;;;;;;;;;35.71;23.26;99351.25;5096596;28;19934;-51
2021/07/11 11:11:29;;;;;;;;;;;;;;;36.11;22.23;99338.47;5096490;28;20319;-52
2021/07/11 11:14:02;;;;;;;;;;;;;;;36.17;22.15;99348.03;5124455;27;20371;-51
2021/07/11 11:16:31;;;;;;;;;;;;;;;36.22;22.04;99338.59;5135433;27;20264;-51
2021/07/11 11:18:56;;;;;;;;;;;;;;;36.13;22.24;99334.13;5134571;27;19916;-52
2021/07/11 11:21:22;;;;;;;;;;;;;;;36.48;22.43;99335.56;5115694;27;19923;-52
2021/07/11 11:23:51;;;;;;;;;;;;;;;36.62;22.17;99329.28;5112461;28;19916;-51
2021/07/11 11:26:18;;;;;;;;;;;;;;;36.90;21.73;99322.25;5112809;28;19950;-52
2021/07/11 11:28:43;;;;;;;;;;;;;;;36.70;22.58;99330.13;5112622;28;19912;-53
2021/07/11 11:31:10;;;;;;;;;;;;;;;36.47;22.18;99331.19;5121651;27;20336;-53
2021/07/11 11:33:51;;;;;;;;;;;;;;;36.59;21.42;99319.78;5133664;27;19912;-52
2021/07/11 11:36:47;;;;;;;;;;;;;;;35.48;22.95;99318.22;5135107;27;20351;-52
2021/07/11 11:39:19;;;;;;;;;;;;;;;35.71;22.49;99320.81;5117798;27;20011;-53
2021/07/11 11:41:44;;;;;;;;;;;;;;;35.88;21.98;99308.28;5135220;27;19976;-52
2021/07/11 11:44:14;;;;;;;;;;;;;;;35.73;21.69;99304.59;5134703;27;19915;-52
2021/07/11 11:46:40;;;;;;;;;;;;;;;36.09;22.09;99300.09;5134417;27;19911;-54
2021/07/11 11:49:15;;;;;;;;;;;;;;;36.20;21.40;99287.13;5135160;27;19984;-50
2021/07/11 11:51:50;;;;;;;;;;;;;;;36.43;21.95;99299.13;5134695;27;20355;-52
2021/07/11 11:54:25;;;;;;;;;;;;;;;36.18;22.01;99283.19;5134885;27;19911;-51
2021/07/11 11:56:50;;;;;;;;;;;;;;;36.36;21.77;99295.13;5135069;27;19943;-52
2021/07/11 11:59:15;;;;;;;;;;;;;;;36.26;21.68;99287.56;5134885;27;20383;-52
2021/07/11 12:01:40;;;;;;;;;;;;;;;36.17;21.76;99289.88;5134468;27;19976;-50
2021/07/11 12:04:12;;;;;;;;;;;;;;;36.52;21.75;99277.38;5134654;27;19923;-52
2021/07/11 12:06:38;;;;;;;;;;;;;;;36.54;21.95;99283.34;5134408;27;20288;-52
2021/07/11 12:09:04;;;;;;;;;;;;;;;36.34;21.61;99288.38;5134044;27;19919;-52
2021/07/11 12:11:29;;;;;;;;;;;;;;;36.49;22.03;99283.72;5133714;27;20267;-52
2021/07/11 12:14:03;;;;;;;;;;;;;;;37.06;21.55;99280.31;5133186;27;20356;-53
2021/07/11 12:16:28;;;;;;;;;;;;;;;37.29;21.07;99274.44;5133862;27;19916;-51
2021/07/11 12:18:54;;;;;;;;;;;;;;;37.09;20.47;99272.00;5133917;27;19941;-52
2021/07/11 12:21:23;;;;;;;;;;;;;;;37.16;21.58;99268.47;5124703;27;19977;-51
2021/07/11 12:24:02;;;;;;;;;;;;;;;36.80;20.92;99262.84;5133791;27;19979;-52
2021/07/11 12:26:28;;;;;;;;;;;;;;;36.26;21.93;99268.19;5119735;27;19954;-39
2021/07/11 12:28:54;;;;;;;;;;;;;;;36.18;21.95;99259.03;5112874;28;19912;-38
2021/07/11 12:31:23;;;;;;;;;;;;;;;36.33;22.10;99248.03;5110299;28;19912;-39
2021/07/11 12:33:49;;;;;;;;;;;;;;;36.58;21.96;99250.91;5111946;28;19918;-38
2021/07/11 12:36:14;;;;;;;;;;;;;;;36.05;21.25;99243.13;5095459;28;19958;-39
2021/07/11 12:38:39;;;;;;;;;;;;;;;36.34;21.69;99241.31;5113095;28;20352;-39
2021/07/11 12:41:07;;;;;;;;;;;;;;;36.02;21.73;99253.00;5113090;28;19912;-54
2021/07/11 12:43:33;;;;;;;;;;;;;;;36.32;20.95;99236.16;5112831;28;20073;-53